createdAt,value
2018-07-12T00:00:51.622Z,14.60
2018-07-12T00:03:19.595Z,14.60
2018-07-12T00:05:47.596Z,14.70
2018-07-12T00:08:15.566Z,14.70
2018-07-12T00:10:47.583Z,14.70
2018-07-12T00:13:18.914Z,14.80
2018-07-12T00:15:46.959Z,14.80
2018-07-12T00:18:15.057Z,14.80
2018-07-12T00:20:43.124Z,14.80
2018-07-12T00:23:11.390Z,14.80
2018-07-12T00:25:39.342Z,14.90
2018-07-12T00:28:09.374Z,14.90
2018-07-12T00:30:42.765Z,15.00
2018-07-12T00:33:10.992Z,15.00
2018-07-12T00:35:39.000Z,15.00
2018-07-12T00:38:07.000Z,15.00
2018-07-12T00:40:38.538Z,15.10
2018-07-12T00:43:07.157Z,15.20
2018-07-12T00:45:35.131Z,15.20
2018-07-12T00:48:06.985Z,15.20
2018-07-12T00:50:39.473Z,15.30
2018-07-12T00:53:07.500Z,15.30
2018-07-12T00:55:36.207Z,15.40
2018-07-12T00:58:04.170Z,15.40
2018-07-12T01:00:32.181Z,15.40
2018-07-12T01:03:00.161Z,15.40
2018-07-12T01:05:28.434Z,15.40
2018-07-12T01:07:56.496Z,15.50
2018-07-12T01:10:24.444Z,15.50
2018-07-12T01:12:52.429Z,15.50
2018-07-12T01:15:20.388Z,15.50
2018-07-12T01:17:48.357Z,15.50
2018-07-12T01:20:16.374Z,15.50
2018-07-12T01:22:44.353Z,15.40
2018-07-12T01:25:12.323Z,15.50
2018-07-12T01:27:40.958Z,15.50
2018-07-12T01:30:08.913Z,15.50
2018-07-12T01:32:37.869Z,15.50
2018-07-12T01:35:05.839Z,15.50
2018-07-12T01:37:33.842Z,15.50
2018-07-12T01:40:01.828Z,15.50
2018-07-12T01:42:29.803Z,15.50
2018-07-12T01:44:57.764Z,15.50
2018-07-12T01:47:26.345Z,15.50
2018-07-12T01:49:54.546Z,15.50
2018-07-12T01:52:23.806Z,15.50
2018-07-12T01:54:51.790Z,15.50
2018-07-12T01:57:19.775Z,15.50
2018-07-12T01:59:47.734Z,15.50
2018-07-12T02:02:19.846Z,15.50
2018-07-12T02:04:48.592Z,15.50
2018-07-12T02:07:16.623Z,15.50
2018-07-12T02:09:44.816Z,15.50
2018-07-12T02:12:12.771Z,15.50
2018-07-12T02:14:42.435Z,15.50
2018-07-12T02:17:10.630Z,15.50
2018-07-12T02:19:38.600Z,15.50
2018-07-12T02:22:06.656Z,15.50
2018-07-12T02:24:34.906Z,15.50
2018-07-12T02:27:02.885Z,15.50
2018-07-12T02:29:30.857Z,15.50
2018-07-12T02:31:58.978Z,15.40
2018-07-12T02:34:27.915Z,15.40
2018-07-12T02:36:58.249Z,15.50
2018-07-12T02:39:27.093Z,15.40
2018-07-12T02:41:55.161Z,15.50
2018-07-12T02:44:23.175Z,15.40
2018-07-12T02:46:51.135Z,15.40
2018-07-12T02:49:19.103Z,15.50
2018-07-12T02:51:48.351Z,15.50
2018-07-12T02:54:16.318Z,15.50
2018-07-12T02:56:45.137Z,15.50
2018-07-12T02:59:13.119Z,15.50
2018-07-12T03:04:09.225Z,15.40
2018-07-12T03:06:39.507Z,15.40
2018-07-12T03:09:08.235Z,15.30
2018-07-12T03:11:37.384Z,15.20
2018-07-12T03:14:06.899Z,15.30
2018-07-12T03:16:34.887Z,15.20
2018-07-12T03:19:02.867Z,15.20
2018-07-12T03:21:37.946Z,15.20
2018-07-12T03:24:07.926Z,15.20
2018-07-12T03:26:35.921Z,15.20
2018-07-12T03:29:03.900Z,15.20
2018-07-12T03:31:31.957Z,15.20
2018-07-12T03:34:00.602Z,15.20
2018-07-12T03:36:28.615Z,15.20
2018-07-12T03:38:56.573Z,15.20
2018-07-12T03:41:25.008Z,15.20
2018-07-12T03:43:53.023Z,15.10
2018-07-12T03:46:21.012Z,15.10
2018-07-12T03:48:49.723Z,15.10
2018-07-12T03:51:17.729Z,15.30
2018-07-12T03:53:45.747Z,15.10
2018-07-12T03:56:15.085Z,15.00
2018-07-12T03:58:44.028Z,15.10
2018-07-12T04:01:12.243Z,15.00
2018-07-12T04:03:41.131Z,15.00
2018-07-12T04:06:09.073Z,15.00
2018-07-12T04:08:37.071Z,14.90
2018-07-12T04:11:05.161Z,14.90
2018-07-12T04:13:33.539Z,14.80
2018-07-12T04:16:01.534Z,14.70
2018-07-12T04:18:30.421Z,14.70
2018-07-12T04:20:58.462Z,14.60
2018-07-12T04:23:27.438Z,14.60
2018-07-12T04:25:55.456Z,14.60
2018-07-12T04:28:23.817Z,14.60
2018-07-12T04:30:52.586Z,14.60
2018-07-12T04:33:20.555Z,14.60
2018-07-12T04:35:48.536Z,14.50
2018-07-12T04:38:16.539Z,14.50
2018-07-12T04:40:44.513Z,14.40
2018-07-12T04:43:12.470Z,14.40
2018-07-12T04:45:42.922Z,14.40
2018-07-12T04:48:10.950Z,14.40
2018-07-12T04:50:39.002Z,14.40
2018-07-12T04:53:06.969Z,14.40
2018-07-12T04:55:35.240Z,14.40
2018-07-12T04:58:03.241Z,14.40
2018-07-12T05:00:31.311Z,14.40
2018-07-12T05:02:59.272Z,14.40
2018-07-12T05:05:27.262Z,14.40
2018-07-12T05:07:55.256Z,14.40
2018-07-12T05:10:23.655Z,14.40
2018-07-12T05:15:20.536Z,14.70
2018-07-12T05:17:48.537Z,14.70
2018-07-12T05:20:16.546Z,14.80
2018-07-12T05:22:44.551Z,14.90
2018-07-12T05:25:13.474Z,15.00
2018-07-12T05:27:41.488Z,15.20
2018-07-12T05:30:09.510Z,15.30
2018-07-12T05:32:38.495Z,15.40
2018-07-12T05:35:06.489Z,15.50
2018-07-12T05:37:35.795Z,15.60
2018-07-12T05:40:04.995Z,15.70
2018-07-12T05:42:34.862Z,15.70
2018-07-12T05:45:04.551Z,15.80
2018-07-12T05:47:33.766Z,15.90
2018-07-12T05:50:03.034Z,15.90
2018-07-12T05:52:32.388Z,15.90
2018-07-12T05:55:01.614Z,16.00
2018-07-12T05:57:31.057Z,16.10
2018-07-12T06:00:00.342Z,16.30
2018-07-12T06:02:29.942Z,16.40
2018-07-12T06:04:59.151Z,16.60
2018-07-12T06:07:31.465Z,16.80
2018-07-12T06:10:00.989Z,17.00
2018-07-12T06:12:30.392Z,17.00
2018-07-12T06:14:59.834Z,17.10
2018-07-12T06:17:29.331Z,17.20
2018-07-12T06:19:58.558Z,17.40
2018-07-12T06:22:28.168Z,17.50
2018-07-12T06:24:58.349Z,17.70
2018-07-12T06:27:27.592Z,17.90
2018-07-12T06:29:56.868Z,18.20
2018-07-12T06:32:27.247Z,18.40
2018-07-12T06:34:57.255Z,18.50
2018-07-12T06:37:26.601Z,18.40
2018-07-12T06:39:55.902Z,18.50
2018-07-12T06:42:25.179Z,18.60
2018-07-12T06:44:54.382Z,18.70
2018-07-12T06:47:23.690Z,18.90
2018-07-12T06:49:52.975Z,19.10
2018-07-12T06:52:23.901Z,19.30
2018-07-12T06:54:53.844Z,19.50
2018-07-12T06:57:24.824Z,19.60
2018-07-12T06:59:58.789Z,19.70
2018-07-12T07:02:29.121Z,19.80
2018-07-12T07:05:01.214Z,19.80
2018-07-12T07:07:30.498Z,19.60
2018-07-12T07:10:07.909Z,19.40
2018-07-12T07:12:46.333Z,19.30
2018-07-12T07:15:16.967Z,19.30
2018-07-12T07:17:48.885Z,19.30
2018-07-12T07:20:19.549Z,19.20
2018-07-12T07:22:48.805Z,19.20
2018-07-12T07:25:18.195Z,19.20
2018-07-12T07:27:47.535Z,19.40
2018-07-12T07:30:18.955Z,19.40
2018-07-12T07:32:48.356Z,19.40
2018-07-12T07:35:17.676Z,19.30
2018-07-12T07:37:46.914Z,19.30
2018-07-12T07:40:16.331Z,19.30
2018-07-12T07:42:45.570Z,19.20
2018-07-12T07:45:16.258Z,19.20
2018-07-12T07:47:45.512Z,19.20
2018-07-12T07:50:16.211Z,19.20
2018-07-12T07:52:45.454Z,19.10
2018-07-12T07:55:16.118Z,19.20
2018-07-12T07:57:46.934Z,19.20
2018-07-12T08:00:18.690Z,19.40
2018-07-12T08:02:47.975Z,19.30
2018-07-12T08:05:19.970Z,19.50
2018-07-12T08:07:49.816Z,19.40
2018-07-12T08:10:19.764Z,19.30
2018-07-12T08:12:49.366Z,19.40
2018-07-12T08:15:18.668Z,19.60
2018-07-12T08:17:50.538Z,19.70
2018-07-12T08:20:21.486Z,19.70
2018-07-12T08:22:51.096Z,19.70
2018-07-12T08:25:21.176Z,19.90
2018-07-12T08:28:01.530Z,20.20
2018-07-12T08:30:30.811Z,20.40
2018-07-12T08:33:01.855Z,20.30
2018-07-12T08:35:31.105Z,20.00
2018-07-12T08:38:00.381Z,20.10
2018-07-12T08:40:29.729Z,19.90
2018-07-12T08:42:59.337Z,20.00
2018-07-12T08:45:29.024Z,20.20
2018-07-12T08:47:58.252Z,20.20
2018-07-12T08:50:27.798Z,20.50
2018-07-12T08:52:58.509Z,20.90
2018-07-12T08:55:27.869Z,21.00
2018-07-12T08:57:57.901Z,21.10
2018-07-12T09:00:28.616Z,21.20
2018-07-12T09:02:59.429Z,21.30
2018-07-12T09:05:29.428Z,21.10
2018-07-12T09:07:58.713Z,20.90
2018-07-12T09:10:28.774Z,20.80
2018-07-12T09:12:58.893Z,20.90
2018-07-12T09:15:28.740Z,20.90
2018-07-12T09:17:58.016Z,20.90
2018-07-12T09:20:27.730Z,21.00
2018-07-12T09:22:57.006Z,21.20
2018-07-12T09:25:26.323Z,21.30
2018-07-12T09:27:55.953Z,21.40
2018-07-12T09:30:27.391Z,21.40
2018-07-12T09:32:57.753Z,21.60
2018-07-12T09:35:27.980Z,21.70
2018-07-12T09:37:57.265Z,21.60
2018-07-12T09:40:28.254Z,21.40
2018-07-12T09:42:58.706Z,21.00
2018-07-12T09:45:27.923Z,21.00
2018-07-12T09:47:58.096Z,21.10
2018-07-12T09:50:27.769Z,21.20
2018-07-12T09:52:57.147Z,21.30
2018-07-12T09:55:26.498Z,21.30
2018-07-12T09:58:06.955Z,21.60
2018-07-12T10:00:42.585Z,21.90
2018-07-12T10:03:17.130Z,22.10
2018-07-12T10:05:51.680Z,21.90
2018-07-12T10:08:26.101Z,21.80
2018-07-12T10:11:00.705Z,21.80
2018-07-12T10:13:35.374Z,21.70
2018-07-12T10:16:08.887Z,21.80
2018-07-12T10:18:38.486Z,21.70
2018-07-12T10:21:07.902Z,21.90
2018-07-12T10:23:37.450Z,22.10
2018-07-12T10:26:07.822Z,22.10
2018-07-12T10:28:38.472Z,22.10
2018-07-12T10:31:08.790Z,22.00
2018-07-12T10:33:38.091Z,22.10
2018-07-12T10:36:07.290Z,22.30
2018-07-12T10:38:36.607Z,22.60
2018-07-12T10:41:09.840Z,23.10
2018-07-12T10:43:39.058Z,23.40
2018-07-12T10:46:08.489Z,23.60
2018-07-12T10:48:37.721Z,23.50
2018-07-12T10:51:10.501Z,23.20
2018-07-12T10:53:39.779Z,22.90
2018-07-12T10:56:09.029Z,22.90
2018-07-12T10:58:38.314Z,22.80
2018-07-12T11:01:08.401Z,22.50
2018-07-12T11:03:37.594Z,22.30
2018-07-12T11:06:06.872Z,22.10
2018-07-12T11:08:36.127Z,22.00
2018-07-12T11:11:05.530Z,22.00
2018-07-12T11:13:45.827Z,22.10
2018-07-12T11:16:15.131Z,22.50
2018-07-12T11:18:44.355Z,23.00
2018-07-12T11:21:14.317Z,23.50
2018-07-12T11:23:43.543Z,23.90
2018-07-12T11:28:43.174Z,24.60
2018-07-12T11:31:12.642Z,24.20
2018-07-12T11:33:44.425Z,23.90
2018-07-12T11:36:13.736Z,23.80
2018-07-12T11:38:43.911Z,23.50
2018-07-12T11:41:14.469Z,23.40
2018-07-12T11:43:43.727Z,23.20
2018-07-12T11:46:14.283Z,23.30
2018-07-12T11:48:44.582Z,23.30
2018-07-12T11:51:13.985Z,23.50
2018-07-12T11:53:43.913Z,23.40
2018-07-12T11:56:13.381Z,23.30
2018-07-12T11:58:42.597Z,23.70
2018-07-12T12:01:12.012Z,24.10
2018-07-12T12:03:41.242Z,24.50
2018-07-12T12:06:10.483Z,24.60
2018-07-12T12:08:39.695Z,24.80
2018-07-12T12:11:09.004Z,24.80
2018-07-12T12:13:38.248Z,24.60
2018-07-12T12:16:07.611Z,24.50
2018-07-12T12:18:36.786Z,24.60
2018-07-12T12:21:06.205Z,24.70
2018-07-12T12:23:35.532Z,24.80
2018-07-12T12:26:04.780Z,24.80
2018-07-12T12:28:34.231Z,24.80
2018-07-12T12:31:04.408Z,24.90
2018-07-12T12:33:33.713Z,24.80
2018-07-12T12:36:02.994Z,24.70
2018-07-12T12:38:34.650Z,24.80
2018-07-12T12:41:06.381Z,25.10
2018-07-12T12:43:36.301Z,25.30
2018-07-12T12:46:05.536Z,25.30
2018-07-12T12:48:34.744Z,25.10
2018-07-12T12:51:04.158Z,25.10
2018-07-12T12:53:33.385Z,25.20
2018-07-12T12:56:02.788Z,25.10
2018-07-12T12:58:35.860Z,24.70
2018-07-12T13:01:07.306Z,24.60
2018-07-12T13:03:36.867Z,24.60
2018-07-12T13:06:06.693Z,24.90
2018-07-12T13:08:36.568Z,25.10
2018-07-12T13:11:06.121Z,25.20
2018-07-12T13:13:35.900Z,25.30
2018-07-12T13:16:05.188Z,25.50
2018-07-12T13:18:34.361Z,25.80
2018-07-12T13:21:04.744Z,26.30
2018-07-12T13:23:33.930Z,26.70
2018-07-12T13:26:03.966Z,26.80
2018-07-12T13:28:33.705Z,27.00
2018-07-12T13:31:26.897Z,26.80
2018-07-12T13:33:56.099Z,26.40
2018-07-12T13:36:25.945Z,26.10
2018-07-12T13:38:56.086Z,25.80
2018-07-12T13:41:31.188Z,26.50
2018-07-12T13:44:13.419Z,27.00
2018-07-12T13:46:42.658Z,27.40
2018-07-12T13:49:11.842Z,27.50
2018-07-12T13:51:41.489Z,27.00
2018-07-12T13:54:10.679Z,26.80
2018-07-12T13:56:40.207Z,26.70
2018-07-12T13:59:10.774Z,26.80
2018-07-12T14:01:40.055Z,26.70
2018-07-12T14:04:10.219Z,26.80
2018-07-12T14:06:39.489Z,26.80
2018-07-12T14:09:10.826Z,26.80
2018-07-12T14:11:40.247Z,27.00
2018-07-12T14:14:09.882Z,27.30
2018-07-12T14:16:39.109Z,27.70
2018-07-12T14:19:08.700Z,27.90
2018-07-12T14:21:37.954Z,28.10
2018-07-12T14:24:07.254Z,28.70
2018-07-12T14:26:36.446Z,29.00
2018-07-12T14:29:06.308Z,29.20
2018-07-12T14:31:35.570Z,29.50
2018-07-12T14:34:04.810Z,29.90
2018-07-12T14:36:34.017Z,31.40
2018-07-12T14:39:03.344Z,33.30
2018-07-12T14:41:33.747Z,35.10
2018-07-12T14:44:03.064Z,36.60
2018-07-12T14:46:32.266Z,37.70
2018-07-12T14:49:01.473Z,39.40
2018-07-12T14:51:30.812Z,40.90
2018-07-12T14:54:00.029Z,41.50
2018-07-12T14:58:59.251Z,42.80
2018-07-12T15:01:28.610Z,43.90
2018-07-12T15:03:57.800Z,44.00
2018-07-12T15:06:27.008Z,42.70
2018-07-12T15:08:56.216Z,39.00
2018-07-12T15:11:29.473Z,37.10
2018-07-12T15:13:59.096Z,35.30
2018-07-12T15:16:29.331Z,34.00
2018-07-12T15:18:58.762Z,33.90
2018-07-12T15:21:28.106Z,32.50
2018-07-12T15:23:57.282Z,32.60
2018-07-12T15:26:26.539Z,33.30
2018-07-12T15:28:55.714Z,33.60
2018-07-12T15:31:25.189Z,34.60
2018-07-12T15:33:54.407Z,34.90
2018-07-12T15:36:24.255Z,34.10
2018-07-12T15:38:53.734Z,33.30
2018-07-12T15:41:24.337Z,32.60
2018-07-12T15:43:54.336Z,31.50
2018-07-12T15:46:24.383Z,31.30
2018-07-12T15:48:53.619Z,30.70
2018-07-12T15:51:23.810Z,29.80
2018-07-12T15:53:53.163Z,29.00
2018-07-12T15:56:23.387Z,29.60
2018-07-12T15:58:52.751Z,31.50
2018-07-12T16:01:27.736Z,34.10
2018-07-12T16:06:29.943Z,36.50
2018-07-12T16:09:00.100Z,36.10
2018-07-12T16:11:29.510Z,35.80
2018-07-12T16:13:59.229Z,35.60
2018-07-12T16:16:30.008Z,36.00
2018-07-12T16:18:59.369Z,35.70
2018-07-12T16:21:29.633Z,35.40
2018-07-12T16:23:59.147Z,34.50
2018-07-12T16:26:28.361Z,33.30
2018-07-12T16:28:57.695Z,32.20
2018-07-12T16:31:27.248Z,32.30
2018-07-12T16:33:56.781Z,33.60
2018-07-12T16:36:26.554Z,34.30
2018-07-12T16:38:55.915Z,35.40
2018-07-12T16:41:25.232Z,36.70
2018-07-12T16:43:55.568Z,38.20
2018-07-12T16:46:25.894Z,38.30
2018-07-12T16:48:55.245Z,35.70
2018-07-12T16:51:24.726Z,33.70
2018-07-12T16:53:54.219Z,32.50
2018-07-12T16:56:23.552Z,32.60
2018-07-12T16:58:52.874Z,33.70
2018-07-12T17:01:22.809Z,34.10
2018-07-12T17:03:52.161Z,33.50
2018-07-12T17:06:22.252Z,33.10
2018-07-12T17:08:53.173Z,34.00
2018-07-12T17:11:22.803Z,35.20
2018-07-12T17:13:53.084Z,35.50
2018-07-12T17:16:23.765Z,36.30
2018-07-12T17:18:55.688Z,36.20
2018-07-12T17:21:25.200Z,35.40
2018-07-12T17:23:56.058Z,34.50
2018-07-12T17:26:25.467Z,34.20
2018-07-12T17:28:54.746Z,34.70
2018-07-12T17:31:24.482Z,35.30
2018-07-12T17:33:53.951Z,36.30
2018-07-12T17:36:23.447Z,36.80
2018-07-12T17:45:45.756Z,35.00
2018-07-12T17:48:17.558Z,31.20
2018-07-12T17:50:47.504Z,29.80
2018-07-12T17:53:17.032Z,28.70
2018-07-12T17:55:46.751Z,28.00
2018-07-12T17:58:17.212Z,27.30
2018-07-12T18:00:47.083Z,26.80
2018-07-12T18:03:16.299Z,26.30
2018-07-12T18:05:46.013Z,26.00
2018-07-12T18:08:15.670Z,25.70
2018-07-12T18:10:45.439Z,25.40
2018-07-12T18:13:14.946Z,25.20
2018-07-12T18:15:44.666Z,25.00
2018-07-12T18:18:14.652Z,24.70
2018-07-12T18:20:43.939Z,24.50
2018-07-12T18:23:13.378Z,24.30
2018-07-12T18:26:01.427Z,24.20
2018-07-12T18:28:30.728Z,24.10
2018-07-12T18:33:29.036Z,23.30
2018-07-12T18:35:58.352Z,22.90
2018-07-12T18:38:29.852Z,22.60
2018-07-12T18:40:59.677Z,22.40
2018-07-12T18:43:29.077Z,22.30
2018-07-12T18:45:58.632Z,22.00
2018-07-12T18:48:29.007Z,21.90
2018-07-12T18:50:58.983Z,21.60
2018-07-12T18:53:28.184Z,21.40
2018-07-12T18:55:57.403Z,21.10
2018-07-12T18:58:26.604Z,21.00
2018-07-12T19:00:56.499Z,20.90
2018-07-12T19:03:25.739Z,20.80
2018-07-12T19:05:59.163Z,20.70
2018-07-12T19:08:28.390Z,20.60
2018-07-12T19:10:58.256Z,20.60
2018-07-12T19:13:28.097Z,20.40
2018-07-12T19:15:57.312Z,20.10
2018-07-12T19:18:27.341Z,19.90
2018-07-12T19:21:01.427Z,19.70
2018-07-12T19:23:30.711Z,19.50
2018-07-12T19:26:00.178Z,19.40
2018-07-12T19:28:29.437Z,19.30
2018-07-12T19:31:03.693Z,19.10
2018-07-12T19:33:33.498Z,19.10
2018-07-12T19:36:03.040Z,19.10
2018-07-12T19:38:32.311Z,19.00
2018-07-12T19:41:02.345Z,19.00
2018-07-12T19:43:31.548Z,18.80
2018-07-12T19:46:01.176Z,18.70
2018-07-12T19:48:30.403Z,18.60
2018-07-12T19:50:59.680Z,18.50
2018-07-12T19:53:30.130Z,18.30
2018-07-12T19:55:59.623Z,18.20
2018-07-12T19:58:28.961Z,18.00
2018-07-12T20:00:59.914Z,17.90
2018-07-12T20:03:29.157Z,17.70
2018-07-12T20:05:58.423Z,17.60
2018-07-12T20:08:27.670Z,17.50
2018-07-12T20:10:58.258Z,17.40
2018-07-12T20:13:27.548Z,17.30
2018-07-12T20:15:59.288Z,17.20
2018-07-12T20:18:29.206Z,17.10
2018-07-12T20:21:00.197Z,17.00
2018-07-12T20:23:29.414Z,17.00
2018-07-12T20:25:59.006Z,17.00
2018-07-12T20:28:28.323Z,16.90
2018-07-12T20:30:57.700Z,16.90
2018-07-12T20:33:27.576Z,16.80
2018-07-12T20:35:56.758Z,16.70
2018-07-12T20:38:26.265Z,16.70
2018-07-12T20:40:55.650Z,16.50
2018-07-12T20:43:24.847Z,16.40
2018-07-12T20:45:54.020Z,16.30
2018-07-12T20:48:23.316Z,16.30
2018-07-12T20:50:52.713Z,16.10
2018-07-12T20:53:21.970Z,16.00
2018-07-12T20:55:51.303Z,15.90
2018-07-12T20:58:20.449Z,15.90
2018-07-12T21:00:49.996Z,15.90
2018-07-12T21:03:19.206Z,15.90
2018-07-12T21:05:48.451Z,15.80
2018-07-12T21:08:17.801Z,15.70
2018-07-12T21:13:16.021Z,15.60
2018-07-12T21:15:45.421Z,15.70
2018-07-12T21:18:15.611Z,15.70
2018-07-12T21:20:44.962Z,15.60
2018-07-12T21:23:16.204Z,15.60
2018-07-12T21:25:45.743Z,15.60
2018-07-12T21:28:15.671Z,15.50
2018-07-12T21:33:14.497Z,15.30
2018-07-12T21:35:44.036Z,15.30
2018-07-12T21:38:13.375Z,15.20
2018-07-12T21:40:45.954Z,15.20
2018-07-12T21:43:16.407Z,15.10
2018-07-12T21:45:47.534Z,15.10
2018-07-12T21:48:16.714Z,15.10
2018-07-12T21:50:46.804Z,15.10
2018-07-12T21:53:16.100Z,14.90
2018-07-12T21:55:45.316Z,14.90
2018-07-12T21:58:14.520Z,14.80
2018-07-12T22:00:44.223Z,14.80
2018-07-12T22:03:13.775Z,14.70
2018-07-12T22:05:44.632Z,14.80
2018-07-12T22:08:22.162Z,14.70
2018-07-12T22:10:58.484Z,14.70
2018-07-12T22:13:28.679Z,14.70
2018-07-12T22:15:57.904Z,14.70
2018-07-12T22:18:30.260Z,14.70
2018-07-12T22:23:28.348Z,14.60
2018-07-12T22:28:27.490Z,14.40
2018-07-12T22:30:57.216Z,14.40
2018-07-12T22:33:27.344Z,14.50
2018-07-12T22:35:56.561Z,14.40
2018-07-12T22:38:25.879Z,14.30
2018-07-12T22:40:58.423Z,14.30
2018-07-12T22:43:27.629Z,14.30
2018-07-12T22:45:57.031Z,14.20
2018-07-12T22:48:27.096Z,14.10
2018-07-12T22:50:57.228Z,14.10
2018-07-12T22:53:26.410Z,14.10
2018-07-12T22:55:55.650Z,14.00
2018-07-12T22:58:24.848Z,14.00
2018-07-12T23:00:54.203Z,14.00
2018-07-12T23:03:23.379Z,14.00
2018-07-12T23:05:52.556Z,14.00
2018-07-12T23:08:21.726Z,13.90
2018-07-12T23:10:51.057Z,13.80
2018-07-12T23:13:20.264Z,13.80
2018-07-12T23:15:49.454Z,13.90
2018-07-12T23:18:18.640Z,13.80
2018-07-12T23:20:49.294Z,13.80
2018-07-12T23:23:18.545Z,13.80
2018-07-12T23:25:47.729Z,13.70
2018-07-12T23:28:16.972Z,13.70
2018-07-12T23:30:46.310Z,13.60
2018-07-12T23:33:15.502Z,13.50
2018-07-12T23:35:45.196Z,13.40
2018-07-12T23:38:14.722Z,13.40
2018-07-12T23:40:44.078Z,13.40
2018-07-12T23:43:13.655Z,13.40
2018-07-12T23:45:42.848Z,13.40
2018-07-12T23:48:12.426Z,13.40
2018-07-12T23:50:41.829Z,13.40
2018-07-12T23:53:11.109Z,13.30
2018-07-12T23:55:41.023Z,13.30
2018-07-12T23:58:12.032Z,13.30
